Time,TemperatureF,DewpointF,PressureIn,WindDirection,WindDirectionDegrees,WindSpeedMPH,WindSpeedGustMPH,Humidity,HourlyPrecipIn,Conditions,Clouds,dailyrainin,SoftwareType,DateUTC
2013-03-11 08:30:00,51.4,50.6,29.76,SW,232,13.0,22.0,97,0.00,CLR,FEW,0.43,WeatherDisplay:10.37,2013-03-11 12:30:00,
2013-03-11 08:40:00,51.8,51.3,29.79,SSW,197,10.0,10.0,98,0.01,RA,FEW,0.44,WeatherDisplay:10.37,2013-03-11 12:40:00,
2013-03-11 08:50:00,51.3,50.7,29.79,South,173,10.0,15.0,98,0.00,CLR,FEW,0.44,WeatherDisplay:10.37,2013-03-11 12:50:00,
2013-03-11 09:00:00,51.1,50.5,29.79,South,179,9.0,10.0,98,0.00,CLR,FEW,0.44,WeatherDisplay:10.37,2013-03-11 13:00:00,
2013-03-11 09:05:00,50.9,50.1,29.79,South,169,8.0,10.0,97,0.00,CLR,FEW,0.44,WeatherDisplay:10.37,2013-03-11 13:05:00,
2013-03-11 09:10:00,50.9,50.1,29.79,SSE,160,7.0,7.0,97,0.00,CLR,FEW,0.44,WeatherDisplay:10.37,2013-03-11 13:10:00,
2013-03-11 09:20:00,50.5,49.7,29.76,SE,132,5.0,5.0,97,0.00,CLR,FEW,0.44,WeatherDisplay:10.37,2013-03-11 13:20:00,
2013-03-11 09:30:00,50.5,49.7,29.76,South,177,5.0,6.0,97,0.00,CLR,FEW,0.44,WeatherDisplay:10.37,2013-03-11 13:30:00,
2013-03-11 09:35:00,50.5,49.7,29.76,SSE,168,5.0,6.0,97,0.00,CLR,FEW,0.44,WeatherDisplay:10.37,2013-03-11 13:35:00,
2013-03-11 09:40:00,50.4,49.5,29.79,SSE,156,5.0,5.0,97,0.00,CLR,FEW,0.44,WeatherDisplay:10.37,2013-03-11 13:40:00,
2013-03-11 09:50:00,50.0,49.2,29.76,SSE,149,6.0,8.0,97,0.00,CLR,FEW,0.44,WeatherDisplay:10.37,2013-03-11 13:50:00,
2013-03-11 10:00:00,50.4,48.7,29.76,SSE,149,6.0,6.0,94,0.00,CLR,FEW,0.44,WeatherDisplay:10.37,2013-03-11 14:00:00,
2013-03-11 10:05:00,50.4,48.7,29.76,SSE,150,6.0,6.0,94,0.00,CLR,FEW,0.44,WeatherDisplay:10.37,2013-03-11 14:05:00,
2013-03-11 10:10:00,50.0,47.8,29.76,SSE,155,5.0,5.0,92,0.00,CLR,FEW,0.44,WeatherDisplay:10.37,2013-03-11 14:10:00,
2013-03-11 10:20:00,50.9,47.5,29.76,SSE,150,6.0,9.0,88,0.00,CLR,FEW,0.44,WeatherDisplay:10.37,2013-03-11 14:20:00,
2013-03-11 10:30:00,51.3,46.6,29.76,SE,146,7.0,8.0,84,0.00,CLR,FEW,0.44,WeatherDisplay:10.37,2013-03-11 14:30:00,
2013-03-11 10:40:00,51.4,45.8,29.76,SE,137,7.0,8.0,81,0.01,RA,FEW,0.45,WeatherDisplay:10.37,2013-03-11 14:40:00,
2013-03-11 10:50:00,51.3,46.6,29.76,SE,140,7.0,8.0,84,0.00,CLR,FEW,0.45,WeatherDisplay:10.37,2013-03-11 14:50:00,
2013-03-11 11:00:00,51.1,46.7,29.76,SSE,153,7.0,7.0,85,0.00,CLR,FEW,0.45,WeatherDisplay:10.37,2013-03-11 15:00:00,
2013-03-11 11:05:00,50.7,47.0,29.76,SSE,154,7.0,7.0,87,0.00,CLR,FEW,0.45,WeatherDisplay:10.37,2013-03-11 15:05:00,
2013-03-11 11:10:00,50.9,47.2,29.73,SE,146,6.0,9.0,87,0.01,RA,FEW,0.47,WeatherDisplay:10.37,2013-03-11 15:10:00,
2013-03-11 11:20:00,50.5,47.4,29.73,SSE,155,7.0,9.0,89,0.00,RA,FEW,0.48,WeatherDisplay:10.37,2013-03-11 15:20:00,
2013-03-11 11:25:00,50.5,47.1,29.73,SSE,151,7.0,9.0,88,0.00,RA,FEW,0.48,WeatherDisplay:10.37,2013-03-11 15:25:00,
2013-03-11 11:30:00,50.5,47.1,29.73,SSE,157,8.0,12.0,88,0.00,CLR,FEW,0.48,WeatherDisplay:10.37,2013-03-11 15:30:00,
2013-03-11 11:35:00,51.1,47.3,29.73,SSE,162,10.0,16.0,87,0.00,CLR,FEW,0.48,WeatherDisplay:10.37,2013-03-11 15:35:00,
2013-03-11 11:40:00,50.9,46.9,29.73,SSE,164,10.0,11.0,86,0.00,CLR,FEW,0.48,WeatherDisplay:10.37,2013-03-11 15:40:00,
2013-03-11 11:50:00,50.4,47.5,29.70,SSE,147,9.0,9.0,90,0.00,RA,FEW,0.50,WeatherDisplay:10.37,2013-03-11 15:50:00,
2013-03-11 11:55:00,50.9,48.4,29.70,SSE,152,8.0,9.0,91,0.00,CLR,FEW,0.50,WeatherDisplay:10.37,2013-03-11 15:55:00,
2013-03-11 12:00:00,51.1,48.0,29.70,SSE,148,8.0,10.0,89,0.00,CLR,FEW,0.50,WeatherDisplay:10.37,2013-03-11 16:00:00,
2013-03-11 12:05:00,51.6,48.2,29.70,SSE,152,8.0,12.0,88,0.00,CLR,FEW,0.50,WeatherDisplay:10.37,2013-03-11 16:05:00,
2013-03-11 12:10:00,51.8,48.1,29.70,SSE,149,9.0,12.0,87,0.00,CLR,FEW,0.50,WeatherDisplay:10.37,2013-03-11 16:10:00,
2013-03-11 12:20:00,52.0,47.6,29.67,SSE,147,9.0,11.0,85,0.00,CLR,FEW,0.50,WeatherDisplay:10.37,2013-03-11 16:20:00,
2013-03-11 12:25:00,52.3,47.6,29.67,SSE,150,9.0,11.0,84,0.00,CLR,FEW,0.50,WeatherDisplay:10.37,2013-03-11 16:25:00,
2013-03-11 12:30:00,52.2,47.5,29.67,SSE,157,9.0,11.0,84,0.00,CLR,FEW,0.50,WeatherDisplay:10.37,2013-03-11 16:30:00,
2013-03-11 12:40:00,52.3,47.6,29.67,SSE,158,7.0,10.0,84,0.00,CLR,FEW,0.50,WeatherDisplay:10.37,2013-03-11 16:40:00,
2013-03-11 12:45:00,52.9,47.5,29.67,SSE,159,7.0,10.0,82,0.00,CLR,FEW,0.50,WeatherDisplay:10.37,2013-03-11 16:45:00,
2013-03-11 12:50:00,54.3,47.3,29.67,SSE,159,7.0,12.0,77,0.00,CLR,FEW,0.50,WeatherDisplay:10.37,2013-03-11 16:50:00,
2013-03-11 13:00:00,54.5,46.7,29.67,SSE,160,10.0,15.0,75,0.00,CLR,FEW,0.50,WeatherDisplay:10.37,2013-03-11 17:00:00,
2013-03-11 13:05:00,55.0,46.5,29.67,SSE,165,12.0,16.0,73,0.00,CLR,FEW,0.50,WeatherDisplay:10.37,2013-03-11 17:05:00,
2013-03-11 13:10:00,55.2,46.3,29.64,SSE,166,13.0,13.0,72,0.00,CLR,FEW,0.50,WeatherDisplay:10.37,2013-03-11 17:10:00,
2013-03-11 13:20:00,55.4,46.5,29.64,SSE,164,12.0,23.0,72,0.00,CLR,FEW,0.50,WeatherDisplay:10.37,2013-03-11 17:20:00,
2013-03-11 13:25:00,55.2,47.1,29.64,South,171,13.0,23.0,74,0.00,CLR,FEW,0.50,WeatherDisplay:10.37,2013-03-11 17:25:00,
2013-03-11 13:30:00,54.7,47.3,29.64,South,180,14.0,24.0,76,0.00,RA,FEW,0.51,WeatherDisplay:10.37,2013-03-11 17:30:00,
2013-03-11 13:40:00,52.9,48.8,29.67,South,174,20.0,20.0,86,0.00,CLR,FEW,0.51,WeatherDisplay:10.37,2013-03-11 17:40:00,
2013-03-11 13:50:00,52.0,48.8,29.64,SSE,168,16.0,17.0,89,0.00,RA,FEW,0.54,WeatherDisplay:10.37,2013-03-11 17:50:00,
2013-03-11 14:00:00,52.0,49.4,29.64,SSE,160,14.0,14.0,91,0.00,RA,FEW,0.55,WeatherDisplay:10.37,2013-03-11 18:00:00,
2013-03-11 14:05:00,52.3,49.8,29.61,SSE,153,13.0,13.0,91,0.00,CLR,FEW,0.55,WeatherDisplay:10.37,2013-03-11 18:05:00,
2013-03-11 14:10:00,52.2,49.6,29.61,SSE,154,12.0,12.0,91,0.00,CLR,FEW,0.55,WeatherDisplay:10.37,2013-03-11 18:10:00,
2013-03-11 14:20:00,52.5,49.4,29.61,SE,144,13.0,15.0,89,0.00,CLR,FEW,0.55,WeatherDisplay:10.37,2013-03-11 18:20:00,
2013-03-11 14:30:00,52.9,49.1,29.61,SSE,158,13.0,14.0,87,0.00,CLR,FEW,0.55,WeatherDisplay:10.37,2013-03-11 18:30:00,
2013-03-11 14:40:00,53.2,49.2,29.58,SSE,162,12.0,12.0,86,0.00,CLR,FEW,0.55,WeatherDisplay:10.37,2013-03-11 18:40:00,
2013-03-11 14:50:00,53.6,48.6,29.58,SSE,164,12.0,17.0,83,0.00,CLR,FEW,0.55,WeatherDisplay:10.37,2013-03-11 18:50:00,
2013-03-11 15:00:00,54.3,48.6,29.58,SSE,167,14.0,14.0,81,0.00,CLR,FEW,0.55,WeatherDisplay:10.37,2013-03-11 19:00:00,
2013-03-11 15:05:00,54.3,48.9,29.58,South,170,13.0,14.0,82,0.00,CLR,FEW,0.55,WeatherDisplay:10.37,2013-03-11 19:05:00,
2013-03-11 15:10:00,54.3,48.9,29.58,South,174,14.0,15.0,82,0.00,CLR,FEW,0.55,WeatherDisplay:10.37,2013-03-11 19:10:00,
2013-03-11 15:15:00,54.7,49.6,29.58,South,178,14.0,21.0,83,0.00,CLR,FEW,0.55,WeatherDisplay:10.37,2013-03-11 19:15:00,
2013-03-11 15:20:00,54.9,49.8,29.58,South,175,15.0,21.0,83,0.00,CLR,FEW,0.55,WeatherDisplay:10.37,2013-03-11 19:20:00,
2013-03-11 15:30:00,55.0,50.3,29.58,South,171,16.0,23.0,84,0.00,CLR,FEW,0.55,WeatherDisplay:10.37,2013-03-11 19:30:00,
2013-03-11 15:40:00,55.0,50.3,29.55,South,171,16.0,19.0,84,0.00,CLR,FEW,0.55,WeatherDisplay:10.37,2013-03-11 19:40:00,
2013-03-11 15:50:00,54.9,50.1,29.55,South,172,16.0,17.0,84,0.00,CLR,FEW,0.55,WeatherDisplay:10.37,2013-03-11 19:50:00,
2013-03-11 16:00:00,54.9,50.1,29.55,SSE,166,17.0,22.0,84,0.00,CLR,FEW,0.55,WeatherDisplay:10.37,2013-03-11 20:00:00,
2013-03-11 16:05:00,55.0,50.3,29.55,South,169,18.0,23.0,84,0.00,CLR,FEW,0.55,WeatherDisplay:10.37,2013-03-11 20:05:00,
2013-03-11 16:10:00,55.2,50.5,29.55,SSE,162,18.0,21.0,84,0.00,CLR,FEW,0.55,WeatherDisplay:10.37,2013-03-11 20:10:00,
2013-03-11 16:20:00,55.4,50.6,29.52,SSE,166,18.0,20.0,84,0.00,CLR,FEW,0.55,WeatherDisplay:10.37,2013-03-11 20:20:00,
2013-03-11 16:30:00,55.4,50.6,29.52,SSE,166,17.0,18.0,84,0.00,CLR,FEW,0.55,WeatherDisplay:10.37,2013-03-11 20:30:00,
2013-03-11 16:40:00,55.9,50.9,29.52,South,173,17.0,17.0,83,0.00,CLR,FEW,0.55,WeatherDisplay:10.37,2013-03-11 20:40:00,
2013-03-11 16:50:00,56.1,50.7,29.52,South,170,18.0,23.0,82,0.00,CLR,FEW,0.55,WeatherDisplay:10.37,2013-03-11 20:50:00,
2013-03-11 17:00:00,56.1,50.7,29.52,SSE,165,18.0,18.0,82,0.00,CLR,FEW,0.55,WeatherDisplay:10.37,2013-03-11 21:00:00,
2013-03-11 17:10:00,56.1,50.7,29.52,SSE,164,16.0,16.0,82,0.00,CLR,FEW,0.55,WeatherDisplay:10.37,2013-03-11 21:10:00,
2013-03-11 17:15:00,56.1,50.7,29.52,SSE,163,16.0,20.0,82,0.00,CLR,FEW,0.55,WeatherDisplay:10.37,2013-03-11 21:15:00,
2013-03-11 17:20:00,55.8,51.0,29.50,SSE,158,17.0,20.0,84,0.00,CLR,FEW,0.55,WeatherDisplay:10.37,2013-03-11 21:20:00,
2013-03-11 17:25:00,55.9,51.2,29.50,SSE,158,17.0,19.0,84,0.00,CLR,FEW,0.55,WeatherDisplay:10.37,2013-03-11 21:25:00,
2013-03-11 17:35:00,56.1,51.4,29.50,South,171,18.0,18.0,84,0.00,CLR,FEW,0.57,WeatherDisplay:10.37,2013-03-11 21:35:00,
2013-03-11 17:40:00,56.1,51.4,29.50,South,170,18.0,18.0,84,0.00,CLR,FEW,0.57,WeatherDisplay:10.37,2013-03-11 21:40:00,
2013-03-11 17:45:00,56.3,51.5,29.50,South,181,17.0,17.0,84,0.00,CLR,FEW,0.57,WeatherDisplay:10.37,2013-03-11 21:45:00,
2013-03-11 17:50:00,56.1,51.4,29.50,South,180,16.0,17.0,84,0.00,CLR,FEW,0.57,WeatherDisplay:10.37,2013-03-11 21:50:00,
2013-03-11 17:55:00,55.8,51.3,29.50,South,173,16.0,18.0,85,0.00,CLR,FEW,0.57,WeatherDisplay:10.37,2013-03-11 21:55:00,
2013-03-11 18:00:00,55.8,51.3,29.50,South,170,17.0,22.0,85,0.00,CLR,FEW,0.57,WeatherDisplay:10.37,2013-03-11 22:00:00,
2013-03-11 18:05:00,55.8,51.3,29.50,South,170,18.0,21.0,85,0.00,CLR,FEW,0.57,WeatherDisplay:10.37,2013-03-11 22:05:00,
2013-03-11 18:10:00,55.4,51.3,29.50,South,170,20.0,21.0,86,0.00,CLR,FEW,0.57,WeatherDisplay:10.37,2013-03-11 22:10:00,
2013-03-11 18:20:00,54.9,51.7,29.50,South,177,18.0,19.0,89,0.00,CLR,FEW,0.58,WeatherDisplay:10.37,2013-03-11 22:20:00,
2013-03-11 18:30:00,54.9,52.0,29.52,South,178,16.0,17.0,90,0.00,CLR,FEW,0.58,WeatherDisplay:10.37,2013-03-11 22:30:00,
2013-03-11 18:35:00,53.8,50.9,29.55,SW,232,15.0,22.0,90,0.04,RA,FEW,0.64,WeatherDisplay:10.37,2013-03-11 22:35:00,
2013-03-11 18:40:00,52.5,49.7,29.55,WSW,253,16.0,22.0,90,0.06,RA,FEW,0.69,WeatherDisplay:10.37,2013-03-11 22:40:00,
2013-03-11 18:50:00,50.4,48.7,29.55,SW,236,15.0,15.0,94,0.01,RA,FEW,0.84,WeatherDisplay:10.37,2013-03-11 22:50:00,
2013-03-11 19:00:00,50.2,49.1,29.55,WSW,239,13.0,15.0,96,0.01,RA,FEW,0.88,WeatherDisplay:10.37,2013-03-11 23:00:00,
2013-03-11 19:05:00,50.2,49.4,29.58,WSW,245,12.0,12.0,97,0.00,RA,FEW,0.91,WeatherDisplay:10.37,2013-03-11 23:05:00,
2013-03-11 19:10:00,50.0,49.2,29.58,WSW,245,10.0,12.0,97,0.01,RA,FEW,0.92,WeatherDisplay:10.37,2013-03-11 23:10:00,
2013-03-11 19:20:00,50.0,49.5,29.58,SSW,205,9.0,9.0,98,0.01,RA,FEW,0.96,WeatherDisplay:10.37,2013-03-11 23:20:00,
2013-03-11 19:30:00,50.0,49.5,29.58,SSW,209,7.0,9.0,98,0.00,CLR,FEW,0.96,WeatherDisplay:10.37,2013-03-11 23:30:00,
2013-03-11 19:35:00,50.0,49.7,29.58,SSW,208,7.0,9.0,99,0.00,RA,FEW,0.98,WeatherDisplay:10.37,2013-03-11 23:35:00,
2013-03-11 19:40:00,50.0,49.7,29.58,SSW,198,6.0,7.0,99,0.01,RA,FEW,0.99,WeatherDisplay:10.37,2013-03-11 23:40:00,
2013-03-11 19:50:00,50.0,49.7,29.58,SSW,205,8.0,10.0,99,0.01,RA,FEW,1.03,WeatherDisplay:10.37,2013-03-11 23:50:00,
2013-03-11 20:00:00,49.8,49.8,29.58,SSW,199,8.0,8.0,100,0.01,RA,FEW,1.06,WeatherDisplay:10.37,2013-03-12 00:00:00,
2013-03-11 20:05:00,49.6,49.6,29.58,SW,221,7.0,8.0,100,0.00,RA,FEW,1.06,WeatherDisplay:10.37,2013-03-12 00:05:00,
2013-03-11 20:10:00,49.8,49.8,29.58,SW,226,7.0,8.0,100,0.01,RA,FEW,1.08,WeatherDisplay:10.37,2013-03-12 00:10:00,
2013-03-11 20:15:00,49.6,49.6,29.58,SW,224,7.0,9.0,100,0.00,RA,FEW,1.08,WeatherDisplay:10.37,2013-03-12 00:15:00,
2013-03-11 20:20:00,49.8,49.8,29.58,SW,232,7.0,8.0,100,0.00,RA,FEW,1.09,WeatherDisplay:10.37,2013-03-12 00:20:00,
2013-03-11 20:30:00,49.8,49.8,29.58,SSW,202,7.0,8.0,100,0.00,RA,FEW,1.11,WeatherDisplay:10.37,2013-03-12 00:30:00,
2013-03-11 20:40:00,49.8,49.8,29.58,SW,225,5.0,6.0,100,0.00,RA,FEW,1.12,WeatherDisplay:10.37,2013-03-12 00:40:00,
2013-03-11 20:45:00,49.8,49.8,29.58,SW,220,3.0,3.0,100,0.01,RA,FEW,1.13,WeatherDisplay:10.37,2013-03-12 00:45:00,
2013-03-11 20:50:00,50.0,50.0,29.61,SW,235,2.0,2.0,100,0.00,RA,FEW,1.15,WeatherDisplay:10.37,2013-03-12 00:50:00,
2013-03-11 21:00:00,48.9,48.9,29.61,West,267,2.0,18.0,100,0.01,RA,FEW,1.18,WeatherDisplay:10.37,2013-03-12 01:00:00,
2013-03-11 21:05:00,48.4,48.4,29.61,West,265,8.0,18.0,100,0.01,RA,FEW,1.19,WeatherDisplay:10.37,2013-03-12 01:05:00,
2013-03-11 21:10:00,47.8,47.8,29.64,West,265,9.0,16.0,100,0.00,RA,FEW,1.19,WeatherDisplay:10.37,2013-03-12 01:10:00,
2013-03-11 21:15:00,47.7,47.7,29.64,West,267,13.0,13.0,100,0.00,CLR,FEW,1.19,WeatherDisplay:10.37,2013-03-12 01:15:00,
2013-03-11 21:20:00,47.3,47.3,29.61,WSW,252,13.0,15.0,100,0.00,CLR,FEW,1.19,WeatherDisplay:10.37,2013-03-12 01:20:00,
2013-03-11 21:30:00,46.9,46.9,29.61,West,260,8.0,11.0,100,0.00,CLR,FEW,1.19,WeatherDisplay:10.37,2013-03-12 01:30:00,
2013-03-11 21:35:00,46.6,46.3,29.61,WSW,247,7.0,11.0,99,0.00,CLR,FEW,1.19,WeatherDisplay:10.37,2013-03-12 01:35:00,
2013-03-11 21:40:00,46.6,46.3,29.61,WSW,240,7.0,7.0,99,0.00,CLR,FEW,1.19,WeatherDisplay:10.37,2013-03-12 01:40:00,
2013-03-11 21:50:00,46.9,46.4,29.64,WSW,237,6.0,6.0,98,0.00,CLR,FEW,1.19,WeatherDisplay:10.37,2013-03-12 01:50:00,
2013-03-11 21:55:00,46.8,46.2,29.64,SW,232,5.0,0.0,98,0.00,CLR,FEW,1.19,WeatherDisplay:10.37,2013-03-12 01:55:00,
2013-03-11 22:00:00,46.8,46.0,29.64,SW,232,2.0,2.0,97,0.00,CLR,FEW,1.19,WeatherDisplay:10.37,2013-03-12 02:00:00,
2013-03-11 22:05:00,46.8,46.0,29.64,WSW,258,1.0,6.0,97,0.00,CLR,FEW,1.19,WeatherDisplay:10.37,2013-03-12 02:05:00,
2013-03-11 22:10:00,46.8,46.0,29.64,West,266,2.0,10.0,97,0.00,CLR,FEW,1.19,WeatherDisplay:10.37,2013-03-12 02:10:00,
2013-03-11 22:15:00,45.7,44.9,29.64,West,270,5.0,13.0,97,0.00,CLR,FEW,1.19,WeatherDisplay:10.37,2013-03-12 02:15:00,
2013-03-11 22:20:00,45.5,44.2,29.64,West,271,8.0,13.0,95,0.00,CLR,FEW,1.19,WeatherDisplay:10.37,2013-03-12 02:20:00,
2013-03-11 22:25:00,45.5,43.9,29.64,West,273,9.0,14.0,94,0.00,CLR,FEW,1.19,WeatherDisplay:10.37,2013-03-12 02:25:00,
2013-03-11 22:30:00,45.5,43.6,29.67,West,262,12.0,14.0,93,0.00,CLR,FEW,1.19,WeatherDisplay:10.37,2013-03-12 02:30:00,
2013-03-11 22:35:00,44.6,42.7,29.67,West,265,10.0,10.0,93,0.00,CLR,FEW,1.19,WeatherDisplay:10.37,2013-03-12 02:35:00,
2013-03-11 22:40:00,44.4,42.2,29.67,WSW,254,10.0,17.0,92,0.00,CLR,FEW,1.19,WeatherDisplay:10.37,2013-03-12 02:40:00,
2013-03-11 22:50:00,44.2,41.2,29.67,WSW,238,13.0,13.0,89,0.00,CLR,FEW,1.19,WeatherDisplay:10.37,2013-03-12 02:50:00,
2013-03-11 23:00:00,44.1,40.7,29.67,SW,233,13.0,13.0,88,0.00,CLR,FEW,1.19,WeatherDisplay:10.37,2013-03-12 03:00:00,
2013-03-11 23:05:00,43.9,40.6,29.67,SW,232,12.0,15.0,88,0.00,CLR,FEW,1.19,WeatherDisplay:10.37,2013-03-12 03:05:00,
2013-03-11 23:10:00,43.7,40.1,29.67,SW,235,12.0,15.0,87,0.00,CLR,FEW,1.19,WeatherDisplay:10.37,2013-03-12 03:10:00,